Time;durP1;ratioP1;P1;durP2;ratioP2;P2;SDS_P1;SDS_P2;PMS_P1;PMS_P2;Temp;Humidity;BMP_temperature;BMP_pressure;BME280_temperature;BME280_humidity;BME280_pressure;Samples;Min_cycle;Max_cycle;Signal;HPM_P1;HPM_P2
2022/10/09 00:02:43;;;;;;;7.80;6.20;;;;;;;11.97;67.46;101087.03;10437728;28;20064;-71
2022/10/09 00:07:44;;;;;;;7.65;6.63;;;;;;;11.82;67.03;101088.94;10431675;28;20074;-69
2022/10/09 00:12:46;;;;;;;9.32;6.57;;;;;;;11.75;67.69;101086.84;10441497;28;20059;-70
2022/10/09 00:17:48;;;;;;;7.13;6.38;;;;;;;11.62;67.84;101085.06;10443993;28;20468;-70
2022/10/09 00:22:49;;;;;;;9.52;7.43;;;;;;;11.61;68.25;101080.69;10480764;28;20052;-70
2022/10/09 00:27:51;;;;;;;8.27;7.30;;;;;;;11.52;69.21;101081.34;10474952;28;20061;-70
2022/10/09 00:32:53;;;;;;;10.65;7.22;;;;;;;11.40;69.38;101079.56;10492118;28;20324;-69
2022/10/09 00:37:54;;;;;;;8.18;6.95;;;;;;;11.38;69.72;101082.34;10444825;28;20064;-69
2022/10/09 00:42:57;;;;;;;8.30;7.47;;;;;;;11.39;69.33;101089.34;10457629;28;20052;-69
2022/10/09 00:48:02;;;;;;;10.90;7.88;;;;;;;11.47;69.08;101084.34;10427203;28;20136;-75
2022/10/09 00:53:03;;;;;;;10.75;8.10;;;;;;;11.32;70.54;101090.78;10436335;28;20539;-70
2022/10/09 00:58:05;;;;;;;7.65;6.35;;;;;;;11.26;69.98;101084.06;10441680;28;20635;-69
2022/10/09 01:03:06;;;;;;;7.93;6.35;;;;;;;11.23;70.40;101089.59;10443381;28;20470;-69
2022/10/09 01:08:26;;;;;;;7.18;5.82;;;;;;;11.12;70.31;101084.16;10428074;28;20945;-70
2022/10/09 01:13:37;;;;;;;6.78;6.07;;;;;;;11.06;71.24;101079.25;10463896;28;20055;-70
2022/10/09 01:19:01;;;;;;;9.35;6.93;;;;;;;11.18;70.31;101082.88;10441788;28;20055;-71
2022/10/09 01:24:27;;;;;;;10.05;7.38;;;;;;;11.03;71.29;101069.66;10360217;28;20040;-71
2022/10/09 01:29:41;;;;;;;7.22;6.53;;;;;;;11.11;71.23;101077.97;10407520;28;20064;-70
2022/10/09 01:34:44;;;;;;;8.93;6.80;;;;;;;11.21;71.32;101070.19;10439028;28;20056;-70
2022/10/09 01:39:47;;;;;;;9.63;6.30;;;;;;;11.32;71.43;101058.78;10412399;28;20053;-69
2022/10/09 01:44:48;;;;;;;8.27;7.32;;;;;;;11.34;70.08;101072.84;10406529;28;20053;-71
2022/10/09 01:50:13;;;;;;;9.02;7.68;;;;;;;11.31;71.41;101065.91;10417895;28;20079;-70
2022/10/09 01:55:45;;;;;;;9.23;6.15;;;;;;;11.16;70.52;101066.16;10403714;28;20057;-69
2022/10/09 02:01:04;;;;;;;7.20;5.78;;;;;;;10.91;70.64;101060.72;10395405;28;20050;-71
2022/10/09 02:06:09;;;;;;;6.63;4.72;;;;;;;10.93;70.51;101056.13;10398193;28;20052;-70
2022/10/09 02:11:13;;;;;;;6.25;4.93;;;;;;;10.94;71.05;101054.31;10395365;28;20044;-69
2022/10/09 02:16:39;;;;;;;8.82;5.75;;;;;;;10.82;69.51;101045.34;10395124;28;20052;-69
2022/10/09 02:21:58;;;;;;;6.32;5.43;;;;;;;10.67;70.56;101054.41;10373408;28;20826;-69
2022/10/09 02:27:01;;;;;;;6.97;5.03;;;;;;;10.57;70.29;101048.88;10433529;28;20048;-71
2022/10/09 02:32:02;;;;;;;6.15;5.13;;;;;;;10.44;70.98;101046.16;10424299;28;20063;-70
2022/10/09 02:37:04;;;;;;;8.43;5.60;;;;;;;10.26;71.41;101034.91;10436994;28;20059;-69
2022/10/09 02:42:06;;;;;;;9.30;5.43;;;;;;;10.29;71.97;101036.53;10438969;28;20052;-71
2022/10/09 02:47:07;;;;;;;7.03;5.68;;;;;;;10.42;72.38;101042.78;10438634;28;20051;-70
2022/10/09 02:52:09;;;;;;;6.60;5.10;;;;;;;10.43;71.36;101040.00;10423297;28;20060;-70
2022/10/09 02:57:10;;;;;;;7.07;5.30;;;;;;;10.62;70.74;101036.09;10428033;28;20044;-70
2022/10/09 03:02:11;;;;;;;8.80;4.03;;;;;;;10.69;70.73;101028.50;10452185;28;20063;-69
2022/10/09 03:07:13;;;;;;;4.82;4.35;;;;;;;10.47;70.04;101032.66;10467447;28;20044;-70
2022/10/09 03:12:19;;;;;;;7.03;4.82;;;;;;;10.25;70.69;101031.41;10480509;28;20109;-72
2022/10/09 03:17:21;;;;;;;6.22;4.47;;;;;;;10.32;70.65;101033.66;10448617;28;20043;-68
2022/10/09 03:22:22;;;;;;;4.88;4.22;;;;;;;10.29;71.02;101041.84;10470803;28;20079;-71
2022/10/09 03:27:23;;;;;;;6.38;4.60;;;;;;;10.46;70.28;101036.25;10488919;28;20052;-70
2022/10/09 03:32:25;;;;;;;4.72;4.20;;;;;;;10.43;70.35;101037.34;10490750;28;20041;-70
2022/10/09 03:37:26;;;;;;;6.90;4.50;;;;;;;10.42;69.80;101042.78;10460487;28;20060;-71
2022/10/09 03:42:27;;;;;;;9.90;5.53;;;;;;;10.19;70.00;101039.81;10430766;28;20053;-70
2022/10/09 03:47:31;;;;;;;7.57;4.28;;;;;;;10.21;70.13;101042.38;10425913;28;20044;-69
2022/10/09 03:52:35;;;;;;;5.60;4.40;;;;;;;10.18;70.08;101047.88;10432613;28;20048;-69
2022/10/09 03:57:36;;;;;;;4.78;4.22;;;;;;;10.06;70.35;101047.72;10443492;28;20041;-68
2022/10/09 04:02:37;;;;;;;5.60;4.32;;;;;;;10.02;69.89;101056.00;10445396;28;20075;-71
2022/10/09 04:07:39;;;;;;;5.88;4.80;;;;;;;10.06;70.00;101057.53;10435960;28;20068;-69
2022/10/09 04:12:40;;;;;;;7.53;4.60;;;;;;;10.17;69.77;101041.69;10440885;28;20053;-70
2022/10/09 04:17:42;;;;;;;6.80;5.22;;;;;;;10.01;69.29;101055.19;10423048;28;21020;-71
2022/10/09 04:22:43;;;;;;;6.45;4.82;;;;;;;9.87;69.26;101049.88;10425257;28;20456;-71
2022/10/09 04:27:44;;;;;;;5.70;5.07;;;;;;;9.71;70.61;101045.56;10446949;28;20060;-72
2022/10/09 04:32:46;;;;;;;7.43;5.35;;;;;;;9.71;70.49;101042.91;10452369;28;20123;-71
2022/10/09 04:37:48;;;;;;;7.25;4.63;;;;;;;9.72;69.99;101047.25;10444694;28;20070;-71
2022/10/09 04:42:50;;;;;;;6.40;4.68;;;;;;;9.58;70.74;101047.31;10446313;28;20061;-71
2022/10/09 04:47:52;;;;;;;9.43;4.93;;;;;;;9.61;71.35;101051.56;10444886;28;22210;-70
2022/10/09 04:52:53;;;;;;;6.18;5.50;;;;;;;9.54;70.84;101057.25;10427431;28;20107;-71
2022/10/09 04:57:54;;;;;;;7.35;4.80;;;;;;;9.61;70.90;101035.59;10421293;28;20052;-70
2022/10/09 05:02:55;;;;;;;9.50;5.70;;;;;;;9.40;70.76;101043.13;10388025;28;20045;-69
2022/10/09 05:07:57;;;;;;;5.95;5.35;;;;;;;9.30;71.35;101041.06;10384765;28;20057;-69
2022/10/09 05:12:58;;;;;;;6.13;4.60;;;;;;;9.40;70.90;101043.13;10375711;28;20049;-71
2022/10/09 05:18:00;;;;;;;6.57;4.65;;;;;;;9.29;71.73;101041.16;10381569;28;20044;-70
2022/10/09 05:23:01;;;;;;;5.88;5.30;;;;;;;9.35;71.36;101035.44;10376329;28;20053;-71
2022/10/09 05:28:03;;;;;;;6.78;4.80;;;;;;;9.23;71.36;101041.53;10383005;28;20056;-69
2022/10/09 05:33:04;;;;;;;5.82;4.60;;;;;;;9.42;71.84;101039.44;10376961;28;20196;-71
2022/10/09 05:38:06;;;;;;;5.85;4.93;;;;;;;9.49;70.56;101040.75;10383026;28;20060;-72
2022/10/09 05:43:07;;;;;;;5.90;4.82;;;;;;;9.49;70.49;101048.72;10398531;28;20049;-69
2022/10/09 05:48:08;;;;;;;5.57;4.78;;;;;;;9.46;71.37;101048.09;10381049;28;20801;-73
2022/10/09 05:53:10;;;;;;;6.63;4.78;;;;;;;9.43;70.58;101040.28;10375741;28;20056;-71
2022/10/09 05:58:11;;;;;;;29.23;26.83;;;;;;;9.35;71.15;101040.78;10378429;28;20064;-72
2022/10/09 06:03:12;;;;;;;40.28;37.25;;;;;;;9.35;70.49;101041.66;10378831;28;20367;-71
2022/10/09 06:08:14;;;;;;;9.07;8.38;;;;;;;9.40;71.30;101044.00;10373319;28;20072;-71
2022/10/09 06:13:15;;;;;;;9.05;6.88;;;;;;;9.58;70.15;101042.00;10372506;28;20060;-69
2022/10/09 06:18:16;;;;;;;7.53;5.60;;;;;;;9.58;70.42;101042.00;10380471;28;20053;-70
2022/10/09 06:23:18;;;;;;;5.88;4.50;;;;;;;9.61;70.21;101052.44;10378200;28;20048;-71
2022/10/09 06:28:20;;;;;;;5.55;4.53;;;;;;;9.66;70.03;101054.78;10374077;28;20056;-68
2022/10/09 06:33:21;;;;;;;6.70;4.47;;;;;;;9.80;69.70;101052.06;10380343;28;20060;-68
2022/10/09 06:38:22;;;;;;;4.90;4.40;;;;;;;10.20;69.31;101048.63;10376599;28;20056;-70
2022/10/09 06:43:24;;;;;;;5.20;4.35;;;;;;;10.41;68.06;101041.06;10379830;28;20065;-72
2022/10/09 06:48:34;;;;;;;8.02;6.47;;;;;;;10.59;67.38;101045.13;10375701;28;20106;-71
2022/10/09 06:53:58;;;;;;;4.55;3.38;;;;;;;10.79;67.77;101050.91;10376496;28;20052;-72
2022/10/09 06:59:01;;;;;;;4.67;4.10;;;;;;;10.95;66.99;101056.03;10376985;28;20458;-68
2022/10/09 07:04:05;;;;;;;11.20;5.82;;;;;;;10.99;66.78;101056.66;10383796;28;20053;-71
2022/10/09 07:09:11;;;;;;;8.32;4.22;;;;;;;11.11;66.45;101056.66;10383453;28;20049;-70
2022/10/09 07:14:14;;;;;;;3.83;3.50;;;;;;;11.28;65.80;101062.63;10398207;28;20751;-71
2022/10/09 07:19:17;;;;;;;4.05;3.65;;;;;;;11.49;65.29;101061.09;10421590;28;20064;-71
2022/10/09 07:24:19;;;;;;;6.55;3.53;;;;;;;11.63;64.85;101057.44;10432033;28;20458;-74
2022/10/09 07:29:21;;;;;;;3.28;2.92;;;;;;;11.80;64.10;101068.69;10417769;28;20056;-71
2022/10/09 07:34:22;;;;;;;4.82;3.42;;;;;;;12.02;63.90;101068.00;10426782;28;20063;-70
2022/10/09 07:39:24;;;;;;;4.18;3.17;;;;;;;12.18;63.03;101067.72;10414154;28;20507;-70
2022/10/09 07:44:25;;;;;;;3.33;3.03;;;;;;;12.33;62.58;101068.41;10412812;28;20060;-71
2022/10/09 07:49:26;;;;;;;4.38;3.35;;;;;;;12.49;62.43;101068.09;10396874;28;20060;-71
2022/10/09 07:54:27;;;;;;;4.22;3.75;;;;;;;12.68;61.84;101063.03;10398432;28;20056;-72
2022/10/09 07:59:29;;;;;;;3.50;3.03;;;;;;;12.89;61.41;101065.03;10419629;28;20053;-73
2022/10/09 08:04:30;;;;;;;9.27;3.05;;;;;;;13.08;60.59;101070.66;10422284;28;20587;-74
2022/10/09 08:09:31;;;;;;;3.42;2.22;;;;;;;13.29;59.44;101064.59;10417563;28;20075;-71
2022/10/09 08:14:33;;;;;;;5.60;3.30;;;;;;;13.52;59.04;101061.94;10421050;28;20053;-69
2022/10/09 08:19:34;;;;;;;3.88;2.78;;;;;;;13.74;58.27;101059.25;10426366;28;20060;-70
2022/10/09 08:24:35;;;;;;;3.38;2.53;;;;;;;13.97;57.72;101049.31;10419250;28;20044;-70
2022/10/09 08:29:37;;;;;;;5.38;2.45;;;;;;;14.28;56.84;101040.59;10424596;28;20307;-72
2022/10/09 08:34:40;;;;;;;3.97;2.55;;;;;;;14.60;56.19;101034.34;10463124;28;20055;-69
2022/10/09 08:39:41;;;;;;;4.55;2.47;;;;;;;14.94;55.03;101037.69;10445603;28;20634;-72
2022/10/09 08:44:47;;;;;;;5.03;2.45;;;;;;;15.29;54.47;101031.06;10418219;28;20061;-71
2022/10/09 08:50:18;;;;;;;3.17;2.50;;;;;;;15.67;52.99;101031.31;10421478;28;20048;-72
2022/10/09 08:55:54;;;;;;;3.17;2.00;;;;;;;16.11;52.76;101026.47;10396203;28;20720;-71
2022/10/09 09:01:14;;;;;;;4.05;2.30;;;;;;;16.46;51.88;101025.03;10401021;28;20474;-69
2022/10/09 09:06:55;;;;;;;2.67;2.03;;;;;;;16.65;50.69;101017.94;10407962;28;20044;-73
2022/10/09 09:12:11;;;;;;;5.38;2.20;;;;;;;17.24;48.90;101010.56;10249245;28;20049;-71
2022/10/09 09:17:45;;;;;;;2.75;2.10;;;;;;;17.72;48.22;101012.13;10376063;28;20041;-69
2022/10/09 09:22:48;;;;;;;3.60;2.13;;;;;;;18.06;47.06;100995.34;10395925;28;20049;-71
2022/10/09 09:27:59;;;;;;;2.63;1.42;;;;;;;18.53;46.38;100991.50;10377569;28;20662;-70
2022/10/09 09:33:14;;;;;;;3.65;1.83;;;;;;;18.84;45.09;100980.22;10374397;28;20057;-71
2022/10/09 09:38:16;;;;;;;3.20;1.75;;;;;;;19.33;44.42;100969.69;10374716;28;20049;-70
2022/10/09 09:43:20;;;;;;;4.30;2.00;;;;;;;19.90;42.45;100970.88;10371590;28;21216;-69
2022/10/09 09:48:33;;;;;;;4.47;1.85;;;;;;;21.36;39.86;100956.38;10373542;28;20531;-73
2022/10/09 09:53:39;;;;;;;6.00;1.70;;;;;;;25.18;32.35;100946.53;10410098;28;20059;-72
2022/10/09 09:58:47;;;;;;;3.42;1.58;;;;;;;27.01;29.82;100932.81;10398766;28;20065;-73
2022/10/09 10:03:51;;;;;;;3.10;1.20;;;;;;;26.96;29.03;100922.53;10396999;28;20152;-72
2022/10/09 10:09:14;;;;;;;3.08;1.55;;;;;;;25.84;30.34;100917.81;10416871;28;20055;-69
2022/10/09 10:14:16;;;;;;;3.60;1.35;;;;;;;25.21;30.70;100912.63;10393166;28;20071;-69
2022/10/09 10:19:23;;;;;;;3.78;2.08;;;;;;;25.70;29.96;100911.50;10417287;28;20063;-73
2022/10/09 10:24:43;;;;;;;1.88;1.10;;;;;;;27.92;26.74;100908.97;10426586;28;20045;-71
2022/10/09 10:29:46;;;;;;;2.88;1.00;;;;;;;31.22;22.20;100891.94;10415252;28;21574;-71
2022/10/09 10:35:05;;;;;;;4.80;1.70;;;;;;;32.48;20.76;100891.84;10397421;28;20048;-70
2022/10/09 10:40:15;;;;;;;2.35;1.05;;;;;;;33.90;19.76;100881.84;10428360;28;20056;-70
2022/10/09 10:45:36;;;;;;;3.17;1.17;;;;;;;34.41;18.51;100871.16;10409338;28;20055;-72
2022/10/09 10:50:45;;;;;;;2.25;0.93;;;;;;;35.61;17.79;100870.41;10412396;28;20048;-71
2022/10/09 10:55:54;;;;;;;3.65;1.00;;;;;;;36.94;15.81;100860.97;10396412;28;20573;-72
2022/10/09 11:01:18;;;;;;;2.60;1.20;;;;;;;36.88;15.71;100860.19;10399040;28;20055;-71
2022/10/09 11:06:32;;;;;;;2.63;0.88;;;;;;;37.65;15.29;100845.78;10418377;28;20049;-71
2022/10/09 11:11:59;;;;;;;2.78;1.02;;;;;;;38.57;14.57;100832.03;10398440;28;20243;-71
2022/10/09 11:17:05;;;;;;;3.92;0.90;;;;;;;39.65;14.34;100819.31;10382756;28;20307;-74
2022/10/09 11:22:44;;;;;;;2.75;0.90;;;;;;;40.61;13.02;100808.50;10377952;28;20266;-70
2022/10/09 11:28:02;;;;;;;1.77;0.60;;;;;;;40.44;12.79;100798.84;10380241;28;20049;-72
2022/10/09 11:33:23;;;;;;;1.53;0.67;;;;;;;40.33;13.08;100794.59;10388814;28;20049;-71
2022/10/09 11:38:32;;;;;;;4.28;0.95;;;;;;;40.59;12.16;100796.84;10372315;28;20045;-72
2022/10/09 11:44:03;;;;;;;2.73;1.00;;;;;;;40.93;12.30;100782.41;10372563;28;21343;-71
2022/10/09 11:49:16;;;;;;;2.75;0.73;;;;;;;42.48;11.59;100761.47;10358331;28;20425;-72
2022/10/09 11:54:21;;;;;;;2.55;0.90;;;;;;;41.58;11.71;100763.47;10380703;28;20052;-72
2022/10/09 11:59:32;;;;;;;1.17;0.65;;;;;;;41.63;11.48;100748.53;10377646;28;20088;-72
2022/10/09 12:04:33;;;;;;;3.03;0.93;;;;;;;42.38;11.30;100748.63;10374054;28;20052;-72
2022/10/09 12:10:07;;;;;;;3.22;1.30;;;;;;;41.63;11.69;100732.59;10376781;28;20495;-72
2022/10/09 12:15:22;;;;;;;1.90;0.60;;;;;;;42.28;11.17;100732.16;10376901;28;20427;-72
2022/10/09 12:20:25;;;;;;;1.58;0.70;;;;;;;42.13;10.87;100717.47;10381514;28;20053;-71
2022/10/09 12:25:37;;;;;;;2.15;0.88;;;;;;;42.82;10.81;100710.31;10373175;28;20042;-75
2022/10/09 12:30:40;;;;;;;2.60;0.80;;;;;;;42.71;10.72;100703.41;10375172;28;20628;-76
2022/10/09 12:35:59;;;;;;;1.75;0.70;;;;;;;43.07;10.02;100693.81;10373214;28;20041;-75
2022/10/09 12:41:04;;;;;;;2.97;0.95;;;;;;;43.45;9.96;100693.06;10372632;28;20056;-73
2022/10/09 12:46:05;;;;;;;1.58;0.40;;;;;;;44.27;9.89;100681.56;10377251;28;20049;-73
2022/10/09 12:51:15;;;;;;;1.85;0.55;;;;;;;43.97;9.61;100675.97;10375838;28;20195;-72
2022/10/09 12:56:31;;;;;;;1.38;0.60;;;;;;;43.95;9.29;100667.09;10413500;28;20734;-71
2022/10/09 13:01:34;;;;;;;1.25;0.60;;;;;;;44.03;9.29;100656.97;10385703;28;20060;-72
2022/10/09 13:06:42;;;;;;;1.42;0.40;;;;;;;43.45;9.68;100645.44;10368169;28;20053;-73
2022/10/09 13:11:50;;;;;;;2.10;0.70;;;;;;;43.13;9.07;100642.06;10371101;28;20826;-72
2022/10/09 13:16:51;;;;;;;2.63;0.50;;;;;;;43.85;9.11;100633.03;10372361;28;20539;-71
2022/10/09 13:22:16;;;;;;;2.97;0.88;;;;;;;43.92;8.82;100628.53;10373269;28;20049;-72
2022/10/09 13:27:20;;;;;;;1.45;0.70;;;;;;;43.66;9.12;100619.44;10369411;28;20056;-73
2022/10/09 13:32:23;;;;;;;2.47;0.43;;;;;;;43.78;8.72;100599.91;10366514;28;20617;-73
2022/10/09 13:37:25;;;;;;;2.35;0.65;;;;;;;43.51;8.86;100596.47;10377440;28;20057;-72
2022/10/09 13:42:31;;;;;;;3.25;0.50;;;;;;;43.14;8.82;100584.94;10375928;28;20061;-73
2022/10/09 13:47:34;;;;;;;2.58;0.52;;;;;;;43.20;9.16;100586.38;10374577;28;20135;-74
2022/10/09 13:52:35;;;;;;;1.15;0.40;;;;;;;42.60;9.21;100584.59;10384764;28;20142;-73
2022/10/09 13:57:36;;;;;;;1.10;0.50;;;;;;;43.02;9.16;100574.44;10391073;28;20071;-75
2022/10/09 14:02:38;;;;;;;2.63;0.43;;;;;;;43.02;9.40;100562.44;10380533;28;20304;-74
2022/10/09 14:07:39;;;;;;;2.40;0.40;;;;;;;42.53;8.86;100563.53;10375310;28;20052;-74
2022/10/09 14:12:40;;;;;;;1.95;0.60;;;;;;;41.85;8.92;100544.47;10375520;28;20056;-75
2022/10/09 14:17:42;;;;;;;1.08;0.20;;;;;;;41.66;9.03;100541.13;10370469;28;20064;-72
2022/10/09 14:22:43;;;;;;;1.55;0.20;;;;;;;40.56;9.67;100529.72;10373158;28;20049;-70
2022/10/09 14:27:44;;;;;;;0.52;0.20;;;;;;;39.57;10.21;100519.22;10368630;28;20048;-71
2022/10/09 14:32:45;;;;;;;1.13;0.40;;;;;;;36.05;12.66;100513.34;10387381;28;20053;-73
2022/10/09 14:37:48;;;;;;;0.82;0.30;;;;;;;30.84;16.72;100508.66;10376480;28;20049;-74
2022/10/09 14:42:49;;;;;;;0.77;0.20;;;;;;;28.09;19.03;100496.13;10389113;28;20635;-73
2022/10/09 14:47:51;;;;;;;1.20;0.50;;;;;;;26.38;21.46;100500.31;10380615;28;20053;-71
2022/10/09 14:52:52;;;;;;;1.38;0.30;;;;;;;24.86;23.34;100490.69;10392528;28;20045;-72
2022/10/09 14:57:53;;;;;;;;;;;;;;;23.81;25.65;100494.78;10380789;28;20057;-71
2022/10/09 15:02:55;;;;;;;1.15;0.50;;;;;;;22.98;26.52;100493.94;10367217;28;19936;-70
2022/10/09 15:08:00;;;;;;;1.80;0.52;;;;;;;22.50;28.02;100492.75;10384014;28;20132;-71
2022/10/09 15:13:01;;;;;;;1.73;0.60;;;;;;;21.93;27.24;100475.53;10408541;28;20052;-69
2022/10/09 15:18:02;;;;;;;1.70;1.15;;;;;;;21.45;28.31;100472.47;10410750;28;20060;-69
2022/10/09 15:23:04;;;;;;;2.67;0.70;;;;;;;20.92;28.66;100467.19;10408811;28;20684;-68
2022/10/09 15:28:05;;;;;;;1.67;0.47;;;;;;;20.47;30.10;100454.41;10411509;28;20049;-69
2022/10/09 15:33:07;;;;;;;1.15;0.35;;;;;;;20.32;30.29;100453.53;10395136;28;20055;-70
2022/10/09 15:38:14;;;;;;;1.73;0.55;;;;;;;20.09;30.23;100458.97;10411449;28;21809;-71
2022/10/09 15:43:18;;;;;;;1.98;0.60;;;;;;;19.84;30.51;100453.75;10400697;28;20052;-70
2022/10/09 15:48:22;;;;;;;2.42;0.70;;;;;;;19.61;31.85;100451.00;10366038;28;20057;-68
2022/10/09 15:53:23;;;;;;;2.20;1.33;;;;;;;19.35;32.23;100449.47;10371051;28;20045;-66
2022/10/09 15:58:25;;;;;;;2.38;0.70;;;;;;;19.19;32.38;100438.75;10387584;28;20558;-68
2022/10/09 16:03:27;;;;;;;2.13;0.90;;;;;;;18.83;33.15;100439.19;10367991;28;20048;-74
2022/10/09 16:08:29;;;;;;;2.22;0.90;;;;;;;18.63;33.81;100436.88;10364573;28;20053;-69
2022/10/09 16:13:31;;;;;;;2.40;0.88;;;;;;;18.70;34.21;100431.59;10366401;28;20069;-71
2022/10/09 16:18:33;;;;;;;3.13;1.10;;;;;;;18.49;35.45;100437.56;10367234;28;20060;-74
2022/10/09 16:23:34;;;;;;;2.08;1.13;;;;;;;18.36;36.07;100438.91;10372350;28;20049;-70
2022/10/09 16:28:36;;;;;;;1.98;1.00;;;;;;;18.25;36.20;100428.47;10365969;28;20053;-73
2022/10/09 16:33:37;;;;;;;1.75;1.23;;;;;;;18.04;36.99;100425.47;10371793;28;20064;-73
2022/10/09 16:38:39;;;;;;;2.35;1.42;;;;;;;17.92;37.66;100431.16;10401560;28;20560;-72
2022/10/09 16:43:40;;;;;;;2.60;1.42;;;;;;;17.80;38.24;100419.00;10385125;28;20052;-70
2022/10/09 16:48:43;;;;;;;1.88;1.45;;;;;;;17.69;38.65;100427.44;10396003;28;20055;-71
2022/10/09 16:53:47;;;;;;;1.77;1.50;;;;;;;17.66;39.22;100428.59;10402262;28;20068;-69
2022/10/09 16:58:54;;;;;;;1.95;1.73;;;;;;;17.66;40.46;100431.28;10400931;28;20079;-70
2022/10/09 17:03:57;;;;;;;2.15;1.90;;;;;;;17.70;41.45;100431.78;10414313;28;20521;-70
2022/10/09 17:08:59;;;;;;;3.63;2.10;;;;;;;17.65;41.46;100427.75;10414685;28;20044;-69
2022/10/09 17:14:00;;;;;;;4.18;2.33;;;;;;;17.59;41.78;100425.69;10402785;28;20673;-68
2022/10/09 17:19:02;;;;;;;8.18;4.55;;;;;;;17.51;42.94;100417.63;10394998;28;20057;-69
2022/10/09 17:24:04;;;;;;;6.38;3.90;;;;;;;17.38;42.39;100415.41;10412054;28;20095;-70
2022/10/09 17:29:06;;;;;;;3.25;2.67;;;;;;;17.26;42.53;100414.88;10394968;28;20516;-70
2022/10/09 17:34:08;;;;;;;4.35;2.90;;;;;;;17.27;43.18;100413.84;10410637;28;20052;-68
2022/10/09 17:39:15;;;;;;;4.00;3.10;;;;;;;17.18;44.00;100417.53;10414044;28;20055;-69
2022/10/09 17:44:16;;;;;;;3.15;2.70;;;;;;;16.94;43.42;100416.41;10420706;28;20041;-71
2022/10/09 17:49:18;;;;;;;4.47;3.40;;;;;;;16.69;43.29;100415.41;10399896;28;20061;-68
2022/10/09 17:54:19;;;;;;;6.38;3.20;;;;;;;16.57;44.13;100405.94;10414206;28;20057;-71
2022/10/09 17:59:20;;;;;;;4.88;3.22;;;;;;;16.48;44.99;100405.03;10414937;28;20049;-70
2022/10/09 18:04:22;;;;;;;4.03;2.97;;;;;;;16.36;45.07;100395.56;10416477;28;20056;-70
2022/10/09 18:09:23;;;;;;;5.65;2.78;;;;;;;16.30;44.98;100402.41;10370998;28;20053;-70
2022/10/09 18:14:24;;;;;;;3.47;3.00;;;;;;;16.18;45.37;100393.78;10374986;28;20065;-69
2022/10/09 18:19:26;;;;;;;3.60;2.70;;;;;;;16.10;46.17;100396.41;10372307;28;20053;-71
2022/10/09 18:24:27;;;;;;;4.70;3.35;;;;;;;15.98;46.43;100395.78;10372788;28;20479;-70
2022/10/09 18:29:28;;;;;;;4.00;3.08;;;;;;;15.85;47.17;100392.66;10371902;28;20500;-70
2022/10/09 18:34:30;;;;;;;4.88;3.38;;;;;;;15.80;47.63;100400.34;10374021;28;20077;-68
2022/10/09 18:39:35;;;;;;;4.35;2.75;;;;;;;15.76;48.09;100405.13;10373482;28;20098;-71
2022/10/09 18:44:39;;;;;;;5.22;2.83;;;;;;;15.76;48.07;100398.94;10379532;28;20065;-70
2022/10/09 18:49:44;;;;;;;4.43;2.88;;;;;;;15.59;48.70;100398.78;10378419;28;20763;-70
2022/10/09 18:54:49;;;;;;;3.22;2.67;;;;;;;15.54;48.95;100398.41;10378245;28;20080;-72
2022/10/09 18:59:52;;;;;;;4.50;2.47;;;;;;;15.47;48.79;100394.63;10389884;28;21201;-70
2022/10/09 19:04:53;;;;;;;3.28;2.10;;;;;;;15.47;50.47;100382.06;10376558;28;20676;-69
2022/10/09 19:09:55;;;;;;;3.47;2.50;;;;;;;15.41;48.96;100379.97;10382423;28;20052;-70
2022/10/09 19:14:57;;;;;;;3.85;2.72;;;;;;;15.40;49.62;100383.66;10380193;28;20071;-72
2022/10/09 19:19:59;;;;;;;5.38;3.28;;;;;;;15.37;49.37;100383.94;10375481;28;20575;-71
2022/10/09 19:25:01;;;;;;;4.85;2.53;;;;;;;15.24;50.06;100388.84;10374545;28;20051;-69
2022/10/09 19:30:05;;;;;;;2.78;2.45;;;;;;;15.07;50.40;100385.97;10375879;28;20401;-68
2022/10/09 19:35:07;;;;;;;4.40;3.42;;;;;;;14.90;50.34;100378.72;10377068;28;20053;-69
2022/10/09 19:40:08;;;;;;;3.45;2.90;;;;;;;14.88;50.71;100378.03;10375741;28;20965;-69
2022/10/09 19:45:09;;;;;;;5.30;3.35;;;;;;;14.89;51.00;100374.34;10371960;28;20057;-68
2022/10/09 19:50:13;;;;;;;3.45;2.67;;;;;;;14.74;51.35;100366.81;10377296;28;20045;-69
2022/10/09 19:55:15;;;;;;;2.40;2.15;;;;;;;14.58;51.84;100367.41;10384386;28;20063;-71
2022/10/09 20:00:16;;;;;;;4.32;3.00;;;;;;;14.53;51.77;100363.47;10386892;28;20582;-71
2022/10/09 20:05:18;;;;;;;5.40;2.92;;;;;;;14.45;51.82;100357.00;10376827;28;20100;-71
2022/10/09 20:10:19;;;;;;;5.97;2.50;;;;;;;14.40;51.92;100355.78;10374880;28;20064;-71
2022/10/09 20:15:21;;;;;;;5.35;2.78;;;;;;;14.35;52.16;100356.19;10386148;28;20083;-70
2022/10/09 20:20:22;;;;;;;3.10;2.50;;;;;;;14.27;52.12;100348.06;10383719;28;20050;-70
2022/10/09 20:25:24;;;;;;;4.35;2.75;;;;;;;14.28;52.53;100355.94;10381863;28;20053;-71
2022/10/09 20:30:25;;;;;;;4.07;2.40;;;;;;;14.26;52.37;100351.72;10385677;28;20064;-70
2022/10/09 20:35:27;;;;;;;4.88;3.58;;;;;;;14.23;52.38;100342.16;10433677;28;20049;-72
2022/10/09 20:40:28;;;;;;;6.65;3.97;;;;;;;14.18;52.31;100341.75;10417476;28;20630;-72
2022/10/09 20:45:29;;;;;;;4.95;3.67;;;;;;;14.20;52.49;100357.66;10429671;28;20706;-72
2022/10/09 20:50:35;;;;;;;6.07;3.03;;;;;;;14.06;52.71;100345.56;10430625;28;20044;-71
2022/10/09 20:55:36;;;;;;;4.97;3.35;;;;;;;14.00;53.40;100338.97;10416591;28;20747;-72
2022/10/09 21:00:42;;;;;;;4.57;2.83;;;;;;;13.91;52.78;100337.16;10428767;28;20543;-71
2022/10/09 21:05:43;;;;;;;4.80;2.92;;;;;;;13.86;53.06;100334.91;10431276;28;20052;-69
2022/10/09 21:10:46;;;;;;;4.80;2.95;;;;;;;13.90;53.63;100340.81;10439878;28;20059;-71
2022/10/09 21:15:50;;;;;;;4.38;3.25;;;;;;;13.88;52.83;100343.63;10471590;28;20561;-72
2022/10/09 21:20:51;;;;;;;5.60;2.90;;;;;;;13.81;53.42;100337.19;10455583;28;20688;-71
2022/10/09 21:25:52;;;;;;;3.95;3.03;;;;;;;13.68;53.67;100342.81;10435541;28;20055;-70
2022/10/09 21:30:54;;;;;;;6.03;3.50;;;;;;;13.61;53.54;100334.47;10457521;28;20063;-71
2022/10/09 21:35:55;;;;;;;3.35;2.63;;;;;;;13.59;53.56;100330.28;10433942;28;20044;-70
2022/10/09 21:40:57;;;;;;;3.35;2.33;;;;;;;13.61;53.76;100330.97;10418216;28;20580;-70
2022/10/09 21:45:58;;;;;;;3.67;2.90;;;;;;;13.60;53.99;100331.94;10432002;28;20052;-71
2022/10/09 21:50:59;;;;;;;4.90;3.08;;;;;;;13.50;53.92;100326.63;10424140;28;20045;-73
2022/10/09 21:56:02;;;;;;;4.05;3.30;;;;;;;13.46;55.04;100321.69;10416577;28;20682;-70
2022/10/09 22:01:04;;;;;;;4.78;3.20;;;;;;;13.46;54.62;100316.34;10417921;28;20049;-72
2022/10/09 22:06:09;;;;;;;3.00;2.70;;;;;;;13.43;54.50;100312.94;10466108;28;20091;-71
2022/10/09 22:11:17;;;;;;;3.30;2.75;;;;;;;13.45;54.37;100318.19;10455172;28;20149;-71
2022/10/09 22:16:18;;;;;;;4.13;2.80;;;;;;;13.46;54.28;100313.69;10445733;28;20037;-67
2022/10/09 22:21:21;;;;;;;5.65;2.60;;;;;;;13.35;54.54;100310.16;10434702;28;21283;-69
2022/10/09 22:26:23;;;;;;;3.75;2.28;;;;;;;13.30;54.59;100317.72;10433208;28;20037;-67
2022/10/09 22:31:25;;;;;;;3.30;2.50;;;;;;;13.21;55.45;100314.06;10390318;28;20041;-70
2022/10/09 22:36:31;;;;;;;3.50;2.38;;;;;;;13.16;54.91;100310.09;10387509;28;20420;-70
2022/10/09 22:41:34;;;;;;;3.05;2.67;;;;;;;13.13;54.95;100300.53;10399391;28;20053;-70
2022/10/09 22:46:39;;;;;;;4.68;1.92;;;;;;;13.09;55.51;100302.66;10417443;28;20080;-72
2022/10/09 22:51:41;;;;;;;2.80;2.28;;;;;;;13.13;54.90;100310.38;10405035;28;20079;-69
2022/10/09 22:56:44;;;;;;;3.78;2.45;;;;;;;13.16;55.72;100304.75;10390456;28;20037;-70
2022/10/09 23:01:52;;;;;;;3.47;2.25;;;;;;;13.05;54.97;100298.56;10401412;28;20072;-71
2022/10/09 23:06:56;;;;;;;4.05;2.53;;;;;;;12.98;55.31;100292.06;10411184;28;20037;-72
2022/10/09 23:11:58;;;;;;;2.70;2.40;;;;;;;13.03;55.14;100300.53;10453564;28;20063;-71
2022/10/09 23:17:00;;;;;;;3.00;2.60;;;;;;;12.99;55.33;100295.59;10434906;28;20438;-70
2022/10/09 23:22:01;;;;;;;4.32;2.50;;;;;;;12.97;55.48;100287.72;10413960;28;20051;-69
2022/10/09 23:27:02;;;;;;;5.43;2.50;;;;;;;12.83;55.94;100282.75;10428213;28;20056;-68